Time;durP1;ratioP1;P1;durP2;ratioP2;P2;SDS_P1;SDS_P2;PMS_P1;PMS_P2;Temp;Humidity;BMP_temperature;BMP_pressure;BME280_temperature;BME280_humidity;BME280_pressure;Samples;Min_cycle;Max_cycle;Signal;HPM_P1;HPM_P2
2023/10/28 00:00:54;;;;;;;14.70;11.68;;;;;;;11.68;100.00;98891.50;7393232;19;20364;-75
2023/10/28 00:03:21;;;;;;;14.45;11.30;;;;;;;11.68;100.00;98888.03;7394613;19;20734;-75
2023/10/28 00:05:48;;;;;;;15.02;11.32;;;;;;;11.68;100.00;98894.16;7393662;19;20663;-75
2023/10/28 00:08:16;;;;;;;13.95;10.80;;;;;;;11.66;100.00;98896.22;7394752;19;20846;-75
2023/10/28 00:10:44;;;;;;;14.20;10.73;;;;;;;11.66;100.00;98893.56;7395739;19;20373;-75
2023/10/28 00:13:14;;;;;;;14.60;10.70;;;;;;;11.66;100.00;98893.56;7394652;19;20364;-75
2023/10/28 00:15:41;;;;;;;14.80;10.90;;;;;;;11.67;100.00;98892.53;7393090;19;20952;-75
2023/10/28 00:18:08;;;;;;;12.65;10.32;;;;;;;11.69;100.00;98901.09;7393983;19;20713;-75
2023/10/28 00:20:36;;;;;;;14.17;11.30;;;;;;;11.71;100.00;98901.69;7392884;19;20361;-75
2023/10/28 00:23:04;;;;;;;14.27;11.13;;;;;;;11.74;100.00;98900.41;7390949;19;20404;-75
2023/10/28 00:25:34;;;;;;;14.18;11.10;;;;;;;11.75;100.00;98905.50;7393746;19;20414;-75
2023/10/28 00:28:01;;;;;;;13.30;10.25;;;;;;;11.74;100.00;98903.88;7394424;19;20857;-75
2023/10/28 00:30:28;;;;;;;16.88;11.50;;;;;;;11.73;100.00;98909.41;7394829;19;20338;-75
2023/10/28 00:33:04;;;;;;;14.13;10.87;;;;;;;11.72;100.00;98905.94;7391543;19;20357;-75
2023/10/28 00:35:31;;;;;;;13.97;10.97;;;;;;;11.70;100.00;98908.03;7392484;19;20378;-75
2023/10/28 00:37:58;;;;;;;14.88;11.48;;;;;;;11.68;100.00;98910.09;7390910;19;20333;-75
2023/10/28 00:40:30;;;;;;;14.75;11.40;;;;;;;11.67;100.00;98913.78;7394163;19;20881;-75
2023/10/28 00:43:00;;;;;;;16.38;11.65;;;;;;;11.65;100.00;98915.88;7392099;19;20850;-75
2023/10/28 00:45:28;;;;;;;15.10;11.10;;;;;;;11.59;100.00;98911.47;7393236;19;20359;-75
2023/10/28 00:47:56;;;;;;;16.02;11.02;;;;;;;11.54;100.00;98914.78;7391102;19;20894;-75
2023/10/28 00:50:23;;;;;;;16.07;11.53;;;;;;;11.50;100.00;98916.28;7391895;19;20485;-74
2023/10/28 00:52:55;;;;;;;16.58;11.68;;;;;;;11.48;100.00;98922.84;7392602;19;20368;-74
2023/10/28 00:55:23;;;;;;;15.15;11.43;;;;;;;11.47;100.00;98916.69;7389616;19;20376;-74
2023/10/28 00:57:50;;;;;;;15.55;11.27;;;;;;;11.47;100.00;98910.59;7392880;19;20743;-74
2023/10/28 01:00:18;;;;;;;17.17;11.47;;;;;;;11.43;100.00;98913.72;7392161;19;20402;-74
2023/10/28 01:02:45;;;;;;;17.05;11.40;;;;;;;11.39;100.00;98911.69;7387634;19;20424;-74
2023/10/28 01:05:14;;;;;;;15.23;11.13;;;;;;;11.35;100.00;98903.38;7392297;19;20849;-74
2023/10/28 01:07:46;;;;;;;16.05;11.50;;;;;;;11.31;100.00;98909.38;7393316;19;20391;-74
2023/10/28 01:10:28;;;;;;;16.38;11.25;;;;;;;11.26;100.00;98917.97;7393542;19;20371;-74
2023/10/28 01:12:55;;;;;;;15.95;11.50;;;;;;;11.25;100.00;98915.56;7391662;19;20714;-74
2023/10/28 01:15:23;;;;;;;15.15;11.45;;;;;;;11.20;100.00;98913.59;7388734;19;20376;-74
2023/10/28 01:17:50;;;;;;;16.15;11.48;;;;;;;11.16;100.00;98913.22;7392316;19;20368;-74
2023/10/28 01:20:18;;;;;;;17.33;12.27;;;;;;;11.11;100.00;98915.72;7387651;19;20364;-74
2023/10/28 01:22:45;;;;;;;18.42;12.18;;;;;;;11.11;100.00;98925.53;7392923;19;20368;-74
2023/10/28 01:25:13;;;;;;;17.83;12.70;;;;;;;11.10;100.00;98923.91;7391437;19;20360;-74
2023/10/28 01:27:43;;;;;;;19.33;13.05;;;;;;;11.09;100.00;98917.78;7392647;19;21209;-74
2023/10/28 01:30:13;;;;;;;19.73;12.85;;;;;;;11.10;100.00;98916.75;7390521;19;20365;-74
2023/10/28 01:32:41;;;;;;;20.55;13.50;;;;;;;11.10;100.00;98926.56;7388639;19;20348;-74
2023/10/28 01:35:09;;;;;;;20.90;13.30;;;;;;;11.12;100.00;98924.50;7389354;19;20364;-74
2023/10/28 01:37:40;;;;;;;20.17;13.35;;;;;;;11.14;100.00;98922.44;7391175;19;20361;-75
2023/10/28 01:40:13;;;;;;;20.48;13.65;;;;;;;11.17;100.00;98922.78;7390655;19;20374;-75
2023/10/28 01:42:44;;;;;;;20.45;13.45;;;;;;;11.17;100.00;98916.69;7393018;19;20378;-75
2023/10/28 01:45:13;;;;;;;20.85;13.63;;;;;;;11.20;100.00;98918.91;7391522;19;20347;-75
2023/10/28 01:47:42;;;;;;;20.50;13.87;;;;;;;11.21;100.00;98923.97;7392266;19;20352;-75
2023/10/28 01:50:14;;;;;;;20.15;13.15;;;;;;;11.22;100.00;98930.09;7389658;19;20368;-75
2023/10/28 01:52:42;;;;;;;21.42;13.20;;;;;;;11.20;100.00;98925.00;7389990;19;20366;-75
2023/10/28 01:55:11;;;;;;;20.27;12.90;;;;;;;11.18;100.00;98927.06;7389124;19;20340;-75
2023/10/28 01:57:39;;;;;;;19.90;12.60;;;;;;;11.21;100.00;98934.59;7389858;19;20362;-75
2023/10/28 02:00:12;;;;;;;19.25;12.95;;;;;;;11.21;100.00;98931.13;7391652;19;20441;-75
2023/10/28 02:02:45;;;;;;;19.90;13.43;;;;;;;11.19;100.00;98923.38;7387109;19;20883;-75
2023/10/28 02:05:15;;;;;;;19.20;12.30;;;;;;;11.20;100.00;98929.50;7391412;19;20352;-75
2023/10/28 02:07:42;;;;;;;19.77;12.57;;;;;;;11.20;100.00;98924.22;7390145;19;20983;-75
2023/10/28 02:10:10;;;;;;;19.40;12.82;;;;;;;11.23;100.00;98921.09;7388157;19;20388;-75
2023/10/28 02:12:37;;;;;;;20.30;12.55;;;;;;;11.25;100.00;98921.69;7390072;19;20799;-75
2023/10/28 02:15:06;;;;;;;17.40;12.18;;;;;;;11.27;100.00;98918.81;7387419;19;20375;-75
2023/10/28 02:17:35;;;;;;;17.17;11.88;;;;;;;11.27;100.00;98914.31;7390487;19;20428;-75
2023/10/28 02:20:04;;;;;;;21.42;12.68;;;;;;;11.28;100.00;98921.22;7389766;19;20396;-75
2023/10/28 02:22:31;;;;;;;17.40;12.18;;;;;;;11.27;100.00;98924.94;7389135;19;20379;-75
2023/10/28 02:24:58;;;;;;;20.83;12.68;;;;;;;11.27;100.00;98930.25;7389278;19;20364;-75
2023/10/28 02:27:25;;;;;;;19.67;13.13;;;;;;;11.28;100.00;98920.44;7391542;19;20802;-75
2023/10/28 02:29:52;;;;;;;17.90;12.15;;;;;;;11.29;100.00;98930.81;7386456;19;20375;-75
2023/10/28 02:32:19;;;;;;;18.80;12.40;;;;;;;11.31;100.00;98926.09;7388241;19;20344;-74
2023/10/28 02:34:46;;;;;;;20.33;12.50;;;;;;;11.32;100.00;98925.06;7389220;19;20362;-74
2023/10/28 02:37:14;;;;;;;18.13;12.20;;;;;;;11.35;100.00;98921.97;7390575;19;20442;-74
2023/10/28 02:39:41;;;;;;;18.08;12.27;;;;;;;11.35;100.00;98931.78;7389330;19;20369;-74
2023/10/28 02:42:08;;;;;;;17.17;12.20;;;;;;;11.35;100.00;98937.09;7388067;19;20357;-74
2023/10/28 02:44:36;;;;;;;18.38;12.60;;;;;;;11.34;100.00;98930.97;7389699;19;20387;-74
2023/10/28 02:47:03;;;;;;;18.05;12.25;;;;;;;11.34;100.00;98924.84;7387718;19;20395;-74
2023/10/28 02:49:30;;;;;;;17.73;12.20;;;;;;;11.33;100.00;98928.56;7394763;19;20379;-74
2023/10/28 02:51:57;;;;;;;17.38;12.07;;;;;;;11.33;100.00;98923.25;7398243;19;20944;-74
2023/10/28 02:54:24;;;;;;;16.58;12.10;;;;;;;11.32;100.00;98925.06;7392593;19;20376;-74
2023/10/28 02:56:51;;;;;;;18.13;12.35;;;;;;;11.28;100.00;98921.22;7395452;19;20364;-74
2023/10/28 02:59:18;;;;;;;16.40;11.68;;;;;;;11.26;100.00;98927.81;7396962;19;20635;-74
2023/10/28 03:01:45;;;;;;;17.25;12.70;;;;;;;11.20;100.00;98934.81;7392567;19;20363;-74
2023/10/28 03:04:12;;;;;;;17.65;12.60;;;;;;;11.16;100.00;98936.31;7398200;19;20419;-74
2023/10/28 03:06:39;;;;;;;16.73;12.52;;;;;;;11.14;100.00;98925.09;7398057;19;20366;-74
2023/10/28 03:09:06;;;;;;;16.48;12.25;;;;;;;11.12;100.00;98927.16;7393551;19;20368;-74
2023/10/28 03:11:33;;;;;;;18.20;13.48;;;;;;;11.12;100.00;98932.47;7396486;19;20364;-74
2023/10/28 03:14:00;;;;;;;20.00;13.60;;;;;;;11.11;100.00;98934.28;7396897;19;20352;-74
2023/10/28 03:16:27;;;;;;;18.58;13.13;;;;;;;11.13;100.00;98928.75;7394367;19;20355;-74
2023/10/28 03:18:55;;;;;;;17.23;12.32;;;;;;;11.12;100.00;98937.78;7392789;19;20355;-74
2023/10/28 03:21:22;;;;;;;18.13;13.10;;;;;;;11.11;100.00;98938.78;7394658;19;20376;-74
2023/10/28 03:23:50;;;;;;;17.65;13.13;;;;;;;11.09;100.00;98938.19;7396206;19;20356;-74
2023/10/28 03:26:17;;;;;;;16.67;12.50;;;;;;;11.10;100.00;98926.56;7394549;19;20376;-74
2023/10/28 03:28:44;;;;;;;16.63;12.63;;;;;;;11.09;100.00;98927.59;7394507;19;20376;-74
2023/10/28 03:31:12;;;;;;;17.30;12.80;;;;;;;11.07;100.00;98930.47;7395047;19;20353;-74
2023/10/28 03:33:40;;;;;;;17.20;12.68;;;;;;;11.05;100.00;98923.75;7396985;19;20364;-74
2023/10/28 03:36:10;;;;;;;16.08;11.75;;;;;;;11.05;100.00;98931.72;7393025;19;20470;-74
2023/10/28 03:38:37;;;;;;;15.68;11.80;;;;;;;10.99;100.00;98928.91;7396932;19;20369;-74
2023/10/28 03:41:09;;;;;;;17.25;12.00;;;;;;;10.93;100.00;98929.81;7395028;19;20785;-74
2023/10/28 03:43:36;;;;;;;17.55;12.32;;;;;;;10.86;100.00;98931.72;7394875;19;20949;-74
2023/10/28 03:46:04;;;;;;;18.92;12.90;;;;;;;10.80;100.00;98936.06;7395582;19;20876;-74
2023/10/28 03:48:31;;;;;;;17.93;12.50;;;;;;;10.78;100.00;98934.66;7394054;19;20356;-74
2023/10/28 03:51:05;;;;;;;18.08;12.13;;;;;;;10.76;100.00;98936.72;7395560;19;20349;-74
2023/10/28 03:53:32;;;;;;;17.35;12.07;;;;;;;10.76;100.00;98928.75;7394748;19;20353;-74
2023/10/28 03:55:59;;;;;;;16.52;12.15;;;;;;;10.77;100.00;98933.03;7391392;19;20495;-74
2023/10/28 03:58:27;;;;;;;17.70;11.93;;;;;;;10.79;100.00;98929.13;7391930;19;20343;-74
2023/10/28 04:00:55;;;;;;;16.40;11.33;;;;;;;10.82;100.00;98938.50;7394146;19;20427;-74
2023/10/28 04:03:23;;;;;;;15.57;11.68;;;;;;;10.84;100.00;98936.44;7392167;19;20867;-74
2023/10/28 04:05:51;;;;;;;15.07;11.30;;;;;;;10.85;100.00;98943.34;7396489;19;20368;-74
2023/10/28 04:08:18;;;;;;;14.38;11.30;;;;;;;10.87;100.00;98946.59;7393925;19;20356;-74
2023/10/28 04:10:46;;;;;;;15.13;11.05;;;;;;;10.88;100.00;98942.09;7392113;19;20448;-74
2023/10/28 04:13:13;;;;;;;15.32;10.77;;;;;;;10.89;100.00;98944.53;7392732;19;20361;-74
2023/10/28 04:15:40;;;;;;;15.25;10.75;;;;;;;10.90;100.00;98948.00;7391865;19;20484;-74
2023/10/28 04:18:08;;;;;;;18.35;11.52;;;;;;;10.90;100.00;98940.88;7392356;19;20703;-74
2023/10/28 04:20:35;;;;;;;15.80;10.52;;;;;;;10.91;100.00;98946.97;7392480;19;20363;-74
2023/10/28 04:23:02;;;;;;;13.60;9.95;;;;;;;10.90;100.00;98950.63;7395184;19;20844;-74
2023/10/28 04:25:29;;;;;;;13.30;10.27;;;;;;;10.88;100.00;98942.94;7394674;19;20374;-74
2023/10/28 04:27:56;;;;;;;13.52;9.60;;;;;;;10.86;100.00;98952.94;7395101;19;20357;-74
2023/10/28 04:30:23;;;;;;;14.75;10.00;;;;;;;10.83;100.00;98953.38;7390943;19;20336;-74
2023/10/28 04:32:53;;;;;;;12.38;9.18;;;;;;;10.82;100.00;98949.91;7394152;19;20406;-74
2023/10/28 04:35:20;;;;;;;11.83;9.40;;;;;;;10.84;100.00;98957.66;7392859;19;20944;-74
2023/10/28 04:37:55;;;;;;;13.60;9.93;;;;;;;10.85;100.00;98953.16;7394432;19;20365;-74
2023/10/28 04:40:24;;;;;;;13.55;10.25;;;;;;;10.84;100.00;98952.34;7395442;19;20742;-74
2023/10/28 04:42:52;;;;;;;14.45;10.70;;;;;;;10.84;100.00;98949.69;7394511;19;20903;-74
2023/10/28 04:45:21;;;;;;;12.55;9.40;;;;;;;10.83;100.00;98953.38;7394839;19;20700;-74
2023/10/28 04:47:50;;;;;;;14.57;9.40;;;;;;;10.84;100.00;98949.69;7391729;19;20377;-74
2023/10/28 04:50:17;;;;;;;13.70;10.10;;;;;;;10.83;100.00;98945.41;7394298;19;20715;-74
2023/10/28 04:52:44;;;;;;;12.93;10.10;;;;;;;10.82;100.00;98947.25;7394967;19;20392;-74
2023/10/28 04:55:12;;;;;;;13.15;9.90;;;;;;;10.81;100.00;98942.97;7392973;19;20368;-74
2023/10/28 04:57:40;;;;;;;13.60;10.00;;;;;;;10.84;100.00;98944.41;7391904;19;20361;-74
2023/10/28 05:00:08;;;;;;;14.70;10.32;;;;;;;10.87;100.00;98949.25;7392458;19;20364;-74
2023/10/28 05:02:35;;;;;;;12.73;9.88;;;;;;;10.89;100.00;98954.34;7387922;19;20852;-74
2023/10/28 05:05:03;;;;;;;12.38;9.63;;;;;;;10.91;100.00;98953.09;7392326;19;21069;-74
2023/10/28 05:07:30;;;;;;;13.00;9.50;;;;;;;10.94;100.00;98955.28;7391857;19;20871;-74
2023/10/28 05:09:57;;;;;;;13.60;9.73;;;;;;;10.97;100.00;98956.72;7392969;19;20373;-74
2023/10/28 05:12:24;;;;;;;13.00;9.90;;;;;;;10.99;100.00;98950.16;7394694;19;20360;-74
2023/10/28 05:14:51;;;;;;;14.88;9.73;;;;;;;11.01;100.00;98952.59;7389291;19;20823;-74
2023/10/28 05:17:18;;;;;;;12.15;9.07;;;;;;;11.04;100.00;98960.09;7394697;19;20360;-74
2023/10/28 05:19:45;;;;;;;13.68;9.50;;;;;;;11.08;100.00;98960.47;7393915;19;20364;-74
2023/10/28 05:22:13;;;;;;;11.73;8.82;;;;;;;11.10;100.00;98961.88;7393008;19;20340;-74
2023/10/28 05:24:41;;;;;;;11.68;8.55;;;;;;;11.11;100.00;98968.78;7394158;19;20336;-74
2023/10/28 05:27:08;;;;;;;10.82;7.57;;;;;;;11.13;100.00;98965.91;7392434;19;20739;-74
2023/10/28 05:29:36;;;;;;;10.20;7.72;;;;;;;11.13;100.00;98965.91;7393046;19;20984;-74
2023/10/28 05:32:03;;;;;;;11.20;7.93;;;;;;;11.13;100.00;98966.72;7390465;19;20706;-74
2023/10/28 05:34:30;;;;;;;10.40;7.47;;;;;;;11.12;100.00;98969.63;7393696;19;20861;-74
2023/10/28 05:36:57;;;;;;;9.50;7.30;;;;;;;11.11;100.00;98974.09;7391455;19;20884;-74
2023/10/28 05:39:24;;;;;;;9.25;6.55;;;;;;;11.13;100.00;98971.22;7391570;19;20368;-74
2023/10/28 05:41:51;;;;;;;11.10;6.70;;;;;;;11.12;100.00;98969.63;7391061;19;20428;-74
2023/10/28 05:44:18;;;;;;;9.30;6.65;;;;;;;11.13;100.00;98971.22;7392213;19;20436;-74
2023/10/28 05:46:45;;;;;;;8.98;6.18;;;;;;;11.14;100.00;98978.16;7393755;19;20388;-74
2023/10/28 05:49:14;;;;;;;9.33;6.40;;;;;;;11.14;100.00;98980.81;7391018;19;20368;-74
2023/10/28 05:51:43;;;;;;;11.03;6.47;;;;;;;11.16;100.00;98981.41;7391571;19;20423;-74
2023/10/28 05:54:11;;;;;;;9.88;5.90;;;;;;;11.17;100.00;98983.03;7392182;19;20428;-74
2023/10/28 05:56:38;;;;;;;8.85;5.90;;;;;;;11.16;100.00;98992.84;7392126;19;20769;-74
2023/10/28 05:59:05;;;;;;;9.88;5.20;;;;;;;11.16;100.00;98992.03;7391623;19;20477;-74
2023/10/28 06:01:32;;;;;;;9.40;5.03;;;;;;;11.15;100.00;98998.34;7391596;19;20369;-74
2023/10/28 06:03:59;;;;;;;8.52;4.95;;;;;;;11.16;100.00;99000.00;7390411;19;20336;-78
2023/10/28 06:06:27;;;;;;;9.55;4.50;;;;;;;11.17;100.00;99001.59;7393213;19;20888;-82
2023/10/28 06:08:54;;;;;;;9.23;4.95;;;;;;;11.17;100.00;99005.06;7392607;19;20388;-83
2023/10/28 06:11:21;;;;;;;7.85;4.05;;;;;;;11.19;100.00;99012.81;7396256;19;20363;-82
2023/10/28 06:13:49;;;;;;;8.80;4.47;;;;;;;11.19;100.00;99008.31;7394360;19;20356;-82
2023/10/28 06:16:18;;;;;;;7.80;4.07;;;;;;;11.21;100.00;99008.09;7386572;19;20351;-81
2023/10/28 06:18:46;;;;;;;8.77;3.50;;;;;;;11.20;100.00;99009.13;7392257;19;20360;-81
2023/10/28 06:21:16;;;;;;;7.53;3.83;;;;;;;11.20;100.00;99011.78;7392512;19;20771;-81
2023/10/28 06:23:43;;;;;;;6.65;3.42;;;;;;;11.22;100.00;99017.69;7389274;19;20372;-81
2023/10/28 06:26:10;;;;;;;9.73;4.20;;;;;;;11.25;100.00;99011.94;7393852;19;20769;-81
2023/10/28 06:28:37;;;;;;;5.93;3.35;;;;;;;11.27;100.00;99022.34;7401943;19;20364;-81
2023/10/28 06:31:04;;;;;;;6.13;3.75;;;;;;;11.29;100.00;99022.94;7399949;19;20360;-81
2023/10/28 06:33:32;;;;;;;8.65;3.40;;;;;;;11.29;100.00;99023.72;7402253;19;20365;-81
2023/10/28 06:35:59;;;;;;;7.50;3.75;;;;;;;11.30;100.00;99033.31;7398128;19;20392;-81
2023/10/28 06:38:28;;;;;;;8.73;3.47;;;;;;;11.31;100.00;99034.94;7404601;19;20432;-81
2023/10/28 06:40:55;;;;;;;8.93;3.70;;;;;;;11.35;100.00;99037.97;7401200;19;20372;-81
2023/10/28 06:43:23;;;;;;;8.82;3.83;;;;;;;11.35;100.00;99036.13;7399913;19;20368;-81
2023/10/28 06:45:50;;;;;;;7.05;3.20;;;;;;;11.41;100.00;99039.72;7402591;19;20356;-81
2023/10/28 06:48:17;;;;;;;7.20;3.05;;;;;;;11.42;100.00;99039.50;7399088;19;20374;-81
2023/10/28 06:50:45;;;;;;;6.45;3.15;;;;;;;11.45;100.00;99038.25;7402034;19;20344;-81
2023/10/28 06:53:11;;;;;;;8.63;3.30;;;;;;;11.49;100.00;99044.75;7400748;19;20846;-81
2023/10/28 06:55:38;;;;;;;7.30;3.33;;;;;;;11.49;100.00;99044.75;7399365;19;20351;-81
2023/10/28 06:58:05;;;;;;;5.65;3.17;;;;;;;11.49;100.00;99055.38;7401811;19;21047;-81
2023/10/28 07:00:32;;;;;;;6.10;3.08;;;;;;;11.51;100.00;99047.19;7396979;19;20381;-81
2023/10/28 07:02:59;;;;;;;6.97;2.97;;;;;;;11.52;100.00;99048.81;7399243;19;20356;-81
2023/10/28 07:05:27;;;;;;;4.95;2.83;;;;;;;11.51;99.91;99052.50;7402375;19;20375;-81
2023/10/28 07:07:56;;;;;;;7.25;2.88;;;;;;;11.48;100.00;99063.56;7404668;19;20393;-81
2023/10/28 07:10:23;;;;;;;5.97;2.67;;;;;;;11.48;100.00;99064.38;7396291;19;20364;-81
2023/10/28 07:12:50;;;;;;;5.18;2.75;;;;;;;11.47;100.00;99057.44;7396115;19;20725;-81
2023/10/28 07:15:18;;;;;;;7.78;3.05;;;;;;;11.47;100.00;99068.06;7389130;19;20349;-81
2023/10/28 07:17:45;;;;;;;5.93;2.77;;;;;;;11.48;100.00;99068.88;7400560;19;20369;-81
2023/10/28 07:20:12;;;;;;;9.38;2.65;;;;;;;11.47;100.00;99069.91;7394130;19;20349;-81
2023/10/28 07:22:41;;;;;;;8.07;2.70;;;;;;;11.48;100.00;99075.00;7396613;19;20359;-81
2023/10/28 07:25:09;;;;;;;5.35;2.20;;;;;;;11.50;100.00;99077.44;7397759;19;20363;-81
2023/10/28 07:27:37;;;;;;;7.75;3.00;;;;;;;11.49;100.00;99075.81;7399733;19;20375;-81
2023/10/28 07:30:05;;;;;;;6.88;3.00;;;;;;;11.50;100.00;99082.75;7398601;19;20674;-82
2023/10/28 07:32:32;;;;;;;5.40;2.47;;;;;;;11.54;100.00;99086.56;7396524;19;20424;-82
2023/10/28 07:34:59;;;;;;;7.07;2.63;;;;;;;11.53;100.00;99088.41;7398135;19;20356;-81
2023/10/28 07:37:25;;;;;;;6.82;2.90;;;;;;;11.60;100.00;99088.34;7397199;19;20398;-82
2023/10/28 07:39:52;;;;;;;5.05;2.58;;;;;;;11.58;100.00;99095.72;7399634;19;20377;-82
2023/10/28 07:42:22;;;;;;;5.72;2.67;;;;;;;11.59;100.00;99098.16;7402546;19;20719;-82
2023/10/28 07:44:51;;;;;;;7.70;2.83;;;;;;;11.57;100.00;99104.72;7398221;19;20337;-82
2023/10/28 07:47:18;;;;;;;5.82;2.47;;;;;;;11.57;100.00;99113.50;7399953;19;20368;-82
2023/10/28 07:49:45;;;;;;;6.30;2.75;;;;;;;11.58;100.00;99111.66;7399203;19;20749;-82
2023/10/28 07:52:12;;;;;;;6.32;2.58;;;;;;;11.55;100.00;99118.22;7413876;19;20351;-82
2023/10/28 07:54:39;;;;;;;6.18;2.70;;;;;;;11.55;100.00;99125.38;7420427;19;20369;-82
2023/10/28 07:57:06;;;;;;;5.45;2.95;;;;;;;11.53;100.00;99119.47;7413700;19;20384;-81
2023/10/28 07:59:33;;;;;;;7.60;3.00;;;;;;;11.51;100.00;99121.53;7397637;19;20356;-82
2023/10/28 08:02:00;;;;;;;6.93;3.25;;;;;;;11.49;100.00;99134.22;7396766;19;20766;-82
2023/10/28 08:04:27;;;;;;;6.93;3.75;;;;;;;11.48;100.00;99138.72;7389114;19;20349;-82
2023/10/28 08:06:54;;;;;;;7.22;2.97;;;;;;;11.42;100.00;99134.28;7394568;19;21582;-82
2023/10/28 08:09:22;;;;;;;5.60;2.65;;;;;;;11.41;100.00;99133.50;7395006;19;20377;-82
2023/10/28 08:11:50;;;;;;;5.05;2.53;;;;;;;11.41;100.00;99138.81;7395550;19;20385;-81
2023/10/28 08:14:17;;;;;;;5.18;2.63;;;;;;;11.39;100.00;99143.50;7392124;19;20348;-81
2023/10/28 08:16:45;;;;;;;5.85;3.00;;;;;;;11.40;100.00;99139.81;7396665;19;20345;-81
2023/10/28 08:19:12;;;;;;;6.97;3.23;;;;;;;11.44;100.00;99145.50;7397063;19;20377;-81
2023/10/28 08:21:39;;;;;;;5.22;3.13;;;;;;;11.47;100.00;99138.94;7396301;19;20394;-82
2023/10/28 08:24:08;;;;;;;5.72;3.10;;;;;;;11.52;100.00;99139.13;7400031;19;20344;-81
2023/10/28 08:26:35;;;;;;;6.53;3.30;;;;;;;11.59;100.00;99139.84;7394818;19;20724;-81
2023/10/28 08:29:02;;;;;;;6.28;2.83;;;;;;;11.67;100.00;99144.88;7395936;19;20622;-81
2023/10/28 08:31:29;;;;;;;6.65;3.00;;;;;;;11.73;100.00;99141.34;7396378;19;20880;-81
2023/10/28 08:33:56;;;;;;;6.97;2.90;;;;;;;11.77;100.00;99149.66;7395830;19;20360;-81
2023/10/28 08:36:25;;;;;;;6.00;2.90;;;;;;;11.80;100.00;99149.25;7395405;19;20353;-81
2023/10/28 08:38:52;;;;;;;5.35;2.97;;;;;;;11.86;100.00;99153.69;7397455;19;20451;-82
2023/10/28 08:41:21;;;;;;;4.28;2.45;;;;;;;11.90;100.00;99162.03;7396989;19;20364;-82
2023/10/28 08:43:50;;;;;;;7.18;2.70;;;;;;;11.95;100.00;99151.56;7394515;19;20375;-82
2023/10/28 08:46:17;;;;;;;4.15;2.22;;;;;;;12.00;100.00;99154.34;7395447;19;20870;-82
2023/10/28 08:48:44;;;;;;;9.18;4.55;;;;;;;12.05;100.00;99149.22;7394651;19;20369;-82
2023/10/28 08:51:14;;;;;;;5.10;2.22;;;;;;;12.12;100.00;99149.94;7395470;19;20357;-83
2023/10/28 08:53:44;;;;;;;4.72;1.90;;;;;;;12.17;100.00;99152.72;7395962;19;20356;-83
2023/10/28 08:56:17;;;;;;;6.15;2.13;;;;;;;12.23;100.00;99159.00;7392772;19;20420;-83
2023/10/28 08:58:48;;;;;;;5.85;2.17;;;;;;;12.29;100.00;99155.44;7393576;19;20892;-83
2023/10/28 09:01:17;;;;;;;6.00;2.08;;;;;;;12.34;100.00;99165.41;7395259;19;20350;-82
2023/10/28 09:03:47;;;;;;;6.03;2.25;;;;;;;12.40;100.00;99164.50;7393605;19;20713;-82
2023/10/28 09:06:14;;;;;;;5.93;2.20;;;;;;;12.46;100.00;99176.91;7385210;19;20380;-82
2023/10/28 09:08:41;;;;;;;3.80;2.10;;;;;;;12.53;100.00;99169.66;7387969;19;20384;-83
2023/10/28 09:11:08;;;;;;;6.57;2.90;;;;;;;12.61;100.00;99174.66;7389727;19;20365;-80
2023/10/28 09:13:36;;;;;;;5.15;2.28;;;;;;;12.63;99.78;99175.25;7393371;19;20432;-83
2023/10/28 09:16:04;;;;;;;5.18;2.30;;;;;;;12.65;99.42;99183.00;7391353;19;20361;-83
2023/10/28 09:18:38;;;;;;;4.50;2.10;;;;;;;12.66;99.20;99176.63;7392399;19;20424;-83
2023/10/28 09:21:09;;;;;;;3.60;1.73;;;;;;;12.75;99.46;99174.47;7397747;19;20903;-83
2023/10/28 09:23:37;;;;;;;3.80;2.00;;;;;;;12.84;99.64;99183.78;7391271;19;20356;-83
2023/10/28 09:26:08;;;;;;;3.22;1.50;;;;;;;12.85;98.55;99190.72;7391014;19;20378;-83
2023/10/28 09:28:34;;;;;;;4.20;1.70;;;;;;;12.87;98.56;99193.97;7397214;19;20898;-83
2023/10/28 09:31:01;;;;;;;5.40;2.20;;;;;;;12.89;98.42;99196.41;7394368;19;20374;-83
2023/10/28 09:33:30;;;;;;;6.68;2.38;;;;;;;12.90;98.33;99198.84;7392213;19;20373;-83
2023/10/28 09:35:59;;;;;;;4.28;2.00;;;;;;;12.87;98.07;99199.28;7395409;19;20712;-83
2023/10/28 09:38:26;;;;;;;4.07;1.90;;;;;;;12.88;98.46;99195.59;7395343;19;20337;-83
2023/10/28 09:40:54;;;;;;;4.40;1.90;;;;;;;12.90;98.37;99201.50;7394580;19;20390;-83
2023/10/28 09:43:22;;;;;;;3.65;1.98;;;;;;;12.93;98.13;99200.22;7388964;19;20441;-83
2023/10/28 09:45:53;;;;;;;3.67;1.83;;;;;;;12.98;98.39;99206.47;7395714;19;20364;-83
2023/10/28 09:48:28;;;;;;;5.72;1.98;;;;;;;13.10;98.54;99208.38;7397669;19;20364;-83
2023/10/28 09:50:57;;;;;;;5.03;2.25;;;;;;;13.26;98.70;99208.53;7397057;19;20409;-83
2023/10/28 09:53:37;;;;;;;3.75;1.88;;;;;;;13.40;97.68;99211.00;7395647;19;20363;-83
2023/10/28 09:56:05;;;;;;;5.15;1.83;;;;;;;13.50;97.09;99207.78;7395631;19;20367;-83
2023/10/28 09:59:02;;;;;;;2.92;1.40;;;;;;;13.63;96.75;99207.56;7391463;19;20360;-83
2023/10/28 10:01:45;;;;;;;3.30;1.60;;;;;;;13.76;96.68;99209.97;7387598;19;20340;-83
2023/10/28 10:04:40;;;;;;;4.07;1.80;;;;;;;13.87;95.93;99208.34;7395777;19;20451;-83
2023/10/28 10:07:09;;;;;;;4.15;1.80;;;;;;;13.99;95.06;99205.69;7394428;19;20376;-83
2023/10/28 10:09:40;;;;;;;4.22;1.30;;;;;;;14.03;93.31;99202.31;7391790;19;20364;-83
2023/10/28 10:12:07;;;;;;;2.72;1.33;;;;;;;14.13;93.31;99203.56;7392942;19;20345;-83
2023/10/28 10:14:37;;;;;;;2.90;1.40;;;;;;;14.21;92.57;99201.34;7395452;19;20360;-83
2023/10/28 10:17:16;;;;;;;5.03;1.50;;;;;;;14.27;91.16;99202.28;7389770;19;20911;-82
2023/10/28 10:19:44;;;;;;;3.85;1.45;;;;;;;14.31;89.71;99197.28;7391678;19;20360;-83
2023/10/28 10:22:11;;;;;;;2.97;1.50;;;;;;;14.37;90.51;99191.00;7395413;19;20378;-83
2023/10/28 10:24:49;;;;;;;2.95;1.40;;;;;;;14.44;90.54;99197.81;7394682;19;20443;-83
2023/10/28 10:27:33;;;;;;;2.87;1.57;;;;;;;14.55;89.93;99198.84;7420515;19;20372;-83
2023/10/28 10:30:05;;;;;;;3.13;1.40;;;;;;;14.64;88.61;99193.94;7415969;19;20360;-82
2023/10/28 10:32:49;;;;;;;3.20;1.60;;;;;;;14.73;88.67;99197.03;7393675;19;20332;-83
2023/10/28 10:35:31;;;;;;;3.03;1.55;;;;;;;14.84;88.01;99190.84;7394133;19;20423;-83
2023/10/28 10:38:02;;;;;;;2.67;1.30;;;;;;;14.95;88.00;99192.63;7386573;19;20933;-82
2023/10/28 10:40:52;;;;;;;3.63;1.40;;;;;;;15.07;87.54;99201.41;7392073;19;20373;-83
2023/10/28 10:43:20;;;;;;;4.20;1.27;;;;;;;15.18;88.00;99206.94;7393948;19;20337;-82
2023/10/28 10:45:48;;;;;;;2.50;1.20;;;;;;;15.15;85.86;99208.22;7394497;19;20859;-82
2023/10/28 10:48:16;;;;;;;2.85;1.20;;;;;;;15.16;85.67;99203.69;7392801;19;20364;-82
2023/10/28 10:50:43;;;;;;;2.65;1.20;;;;;;;15.16;85.79;99206.34;7395110;19;20364;-82
2023/10/28 10:53:11;;;;;;;3.20;1.17;;;;;;;15.14;85.71;99195.91;7393491;19;20361;-82
2023/10/28 10:55:40;;;;;;;3.90;1.20;;;;;;;15.17;85.74;99197.28;7388918;19;20663;-82
2023/10/28 10:58:07;;;;;;;2.45;1.02;;;;;;;15.16;84.88;99185.00;7391668;19;20363;-81
2023/10/28 11:00:34;;;;;;;4.03;2.20;;;;;;;15.09;83.83;99187.81;7392710;19;20388;-82
2023/10/28 11:03:03;;;;;;;2.78;1.42;;;;;;;15.08;84.70;99195.00;7387324;19;20387;-82
2023/10/28 11:05:31;;;;;;;3.00;1.20;;;;;;;15.09;84.97;99193.16;7396757;19;20361;-82
2023/10/28 11:07:58;;;;;;;2.92;1.30;;;;;;;15.11;84.72;99192.91;7400975;19;20377;-82
2023/10/28 11:10:25;;;;;;;2.83;1.38;;;;;;;15.12;84.30;99192.66;7395804;19;20368;-82
2023/10/28 11:12:52;;;;;;;2.95;1.33;;;;;;;15.14;84.08;99187.91;7398035;19;20361;-82
2023/10/28 11:15:21;;;;;;;3.90;1.45;;;;;;;15.20;84.67;99189.59;7398952;19;20361;-82
2023/10/28 11:17:50;;;;;;;3.85;1.70;;;;;;;15.29;83.88;99192.69;7393862;19;20361;-82
2023/10/28 11:20:20;;;;;;;4.38;1.67;;;;;;;15.36;84.85;99187.97;7400809;19;20340;-82
2023/10/28 11:22:48;;;;;;;2.67;1.33;;;;;;;15.42;84.40;99186.19;7396455;19;20368;-82
2023/10/28 11:25:15;;;;;;;2.90;1.40;;;;;;;15.47;84.68;99188.94;7401515;19;20427;-82